Time;durP1;ratioP1;P1;durP2;ratioP2;P2;SDS_P1;SDS_P2;PMS_P1;PMS_P2;Temp;Humidity;BMP_temperature;BMP_pressure;BME280_temperature;BME280_humidity;BME280_pressure;Samples;Min_cycle;Max_cycle;Signal;HPM_P1;HPM_P2
2023/03/31 00:00:59;;;;;;;;;;;;;;;9.69;91.76;100275.34;5042959;28;1603;-77
2023/03/31 00:03:24;;;;;;;;;;;;;;;9.69;91.92;100275.34;5042521;28;1308;-77
2023/03/31 00:05:57;;;;;;;;;;;;;;;9.69;92.85;100275.34;5034740;28;2523;-76
2023/03/31 00:08:22;;;;;;;;;;;;;;;9.68;91.99;100265.94;5018045;28;1419;-76
2023/03/31 00:10:47;;;;;;;;;;;;;;;9.66;92.67;100260.09;5035637;28;1952;-76
2023/03/31 00:13:13;;;;;;;;;;;;;;;9.67;92.51;100251.38;5031227;28;1323;-76
2023/03/31 00:15:38;;;;;;;;;;;;;;;9.67;92.38;100241.81;5026389;28;5012;-76
2023/03/31 00:18:04;;;;;;;;;;;;;;;9.69;92.25;100249.44;5034380;28;2182;-76
2023/03/31 00:20:32;;;;;;;;;;;;;;;9.69;93.12;100249.44;5040831;28;1273;-76
2023/03/31 00:22:58;;;;;;;;;;;;;;;9.73;93.04;100248.25;5038216;28;1326;-77
2023/03/31 00:25:23;;;;;;;;;;;;;;;9.73;93.15;100250.84;5037403;28;1339;-76
2023/03/31 00:27:51;;;;;;;;;;;;;;;9.73;93.29;100245.66;5036274;28;1350;-76
2023/03/31 00:30:17;;;;;;;;;;;;;;;9.73;93.85;100251.66;5033141;28;2140;-76
2023/03/31 00:32:42;;;;;;;;;;;;;;;9.72;93.46;100244.03;5041411;28;1342;-77
2023/03/31 00:35:07;;;;;;;;;;;;;;;9.69;93.55;100239.09;5035814;28;1481;-76
2023/03/31 00:37:33;;;;;;;;;;;;;;;9.68;96.00;100227.09;5041611;28;1212;-76
2023/03/31 00:39:59;;;;;;;;;;;;;;;9.65;95.56;100217.03;5038899;28;1310;-76
2023/03/31 00:42:24;;;;;;;;;;;;;;;9.64;95.64;100215.41;5025253;28;1992;-76
2023/03/31 00:45:08;;;;;;;;;;;;;;;9.63;96.08;100203.38;5039472;28;1249;-77
2023/03/31 00:47:34;;;;;;;;;;;;;;;9.61;97.04;100206.13;5036375;28;1278;-76
2023/03/31 00:49:59;;;;;;;;;;;;;;;9.56;97.70;100188.38;5032391;28;1305;-75
2023/03/31 00:52:31;;;;;;;;;;;;;;;9.55;97.39;100179.00;5041522;28;1898;-76
2023/03/31 00:55:03;;;;;;;;;;;;;;;9.52;97.76;100171.50;5039331;28;1165;-76
2023/03/31 00:57:31;;;;;;;;;;;;;;;9.51;98.02;100166.44;5018362;28;1190;-76
2023/03/31 00:59:58;;;;;;;;;;;;;;;9.48;97.97;100159.78;5020112;28;1259;-76
2023/03/31 01:02:26;;;;;;;;;;;;;;;9.48;97.75;100156.38;5041553;28;1722;-76
2023/03/31 01:04:56;;;;;;;;;;;;;;;9.47;97.28;100154.75;5036349;28;1300;-76
2023/03/31 01:07:24;;;;;;;;;;;;;;;9.47;98.10;100158.16;5041120;28;1203;-77
2023/03/31 01:09:53;;;;;;;;;;;;;;;9.48;98.47;100140.84;5043388;28;1188;-76
2023/03/31 01:12:19;;;;;;;;;;;;;;;9.48;98.14;100144.25;5043388;28;1965;-76
2023/03/31 01:14:45;;;;;;;;;;;;;;;9.48;97.68;100144.25;5032712;28;4900;-76
2023/03/31 01:17:10;;;;;;;;;;;;;;;9.49;98.04;100135.53;5035585;28;1540;-77
2023/03/31 01:19:48;;;;;;;;;;;;;;;9.50;98.06;100141.50;5042559;28;1006;-76
2023/03/31 01:22:32;;;;;;;;;;;;;;;9.50;98.33;100121.63;5035136;28;1367;-76
2023/03/31 01:25:05;;;;;;;;;;;;;;;9.51;98.09;100127.59;5031304;28;1224;-76
2023/03/31 01:27:32;;;;;;;;;;;;;;;9.51;97.97;100106.91;5032799;28;1128;-76
2023/03/31 01:30:16;;;;;;;;;;;;;;;9.50;98.77;100110.44;5019808;28;1478;-76
2023/03/31 01:33:04;;;;;;;;;;;;;;;9.49;97.96;100103.66;5039917;28;1119;-76
2023/03/31 01:35:47;;;;;;;;;;;;;;;9.47;98.48;100101.19;5017654;28;1196;-76
2023/03/31 01:38:31;;;;;;;;;;;;;;;9.47;98.70;100096.03;5035074;28;1157;-74
2023/03/31 01:40:57;;;;;;;;;;;;;;;9.46;99.12;100093.53;5039813;28;1250;-74
2023/03/31 01:43:28;;;;;;;;;;;;;;;9.46;98.93;100089.22;5038862;28;1616;-74
2023/03/31 01:45:59;;;;;;;;;;;;;;;9.46;98.71;100086.63;5036468;28;1572;-74
2023/03/31 01:48:24;;;;;;;;;;;;;;;9.47;99.12;100080.50;5042415;28;1302;-74
2023/03/31 01:50:56;;;;;;;;;;;;;;;9.44;98.63;100078.16;5024086;28;1974;-74
2023/03/31 01:53:40;;;;;;;;;;;;;;;9.44;99.68;100069.59;5038459;28;1189;-74
2023/03/31 01:56:24;;;;;;;;;;;;;;;9.45;98.87;100056.50;5023836;28;1244;-74
2023/03/31 01:58:53;;;;;;;;;;;;;;;9.44;99.43;100048.88;5037562;28;1263;-74
2023/03/31 02:01:21;;;;;;;;;;;;;;;9.43;99.09;100042.88;5040775;28;1353;-74
2023/03/31 02:03:54;;;;;;;;;;;;;;;9.44;99.47;100039.34;5038899;28;1265;-74
2023/03/31 02:06:26;;;;;;;;;;;;;;;9.43;98.90;100029.94;5034061;28;1477;-75
2023/03/31 02:08:57;;;;;;;;;;;;;;;9.43;100.00;100027.34;5042488;28;1261;-75
2023/03/31 02:11:23;;;;;;;;;;;;;;;9.44;99.25;100012.63;5020871;28;2364;-74
2023/03/31 02:13:51;;;;;;;;;;;;;;;9.44;99.36;100013.44;5033666;28;4740;-74
2023/03/31 02:16:20;;;;;;;;;;;;;;;9.44;100.00;100002.28;5037968;28;1631;-74
2023/03/31 02:18:47;;;;;;;;;;;;;;;9.44;100.00;100003.09;5021690;28;1518;-74
2023/03/31 02:21:13;;;;;;;;;;;;;;;9.43;100.00;100001.47;5030327;28;1328;-74
2023/03/31 02:23:39;;;;;;;;;;;;;;;9.46;98.99;99990.84;5040545;28;1237;-75
2023/03/31 02:26:04;;;;;;;;;;;;;;;9.43;99.31;99985.94;5037841;28;1222;-74
2023/03/31 02:28:30;;;;;;;;;;;;;;;9.45;100.00;99986.59;5037304;28;1941;-74
2023/03/31 02:31:07;;;;;;;;;;;;;;;9.43;100.00;99970.41;5041200;28;1890;-75
2023/03/31 02:33:32;;;;;;;;;;;;;;;9.44;100.00;99959.09;5019549;28;2040;-74
2023/03/31 02:35:58;;;;;;;;;;;;;;;9.43;99.90;99960.06;5034524;28;1439;-74
2023/03/31 02:38:24;;;;;;;;;;;;;;;9.44;100.00;99950.53;5045488;28;1392;-74
2023/03/31 02:40:49;;;;;;;;;;;;;;;9.42;100.00;99937.72;5037096;28;1340;-74
2023/03/31 02:43:14;;;;;;;;;;;;;;;9.42;100.00;99927.38;5034839;28;1405;-74
2023/03/31 02:45:43;;;;;;;;;;;;;;;9.44;100.00;99925.47;5042198;28;1445;-74
2023/03/31 02:48:19;;;;;;;;;;;;;;;9.44;100.00;99920.28;5038842;28;1296;-74
2023/03/31 02:50:47;;;;;;;;;;;;;;;9.43;100.00;99912.66;5038662;28;1894;-75
2023/03/31 02:53:36;;;;;;;;;;;;;;;9.42;100.00;99896.31;5046200;28;1426;-74
2023/03/31 02:56:10;;;;;;;;;;;;;;;9.40;100.00;99898.22;5043970;28;1407;-74
2023/03/31 02:58:35;;;;;;;;;;;;;;;9.37;100.00;99882.97;5037352;28;2277;-74
2023/03/31 03:01:16;;;;;;;;;;;;;;;9.37;100.00;99877.81;5036491;28;1529;-74
2023/03/31 03:03:54;;;;;;;;;;;;;;;9.36;100.00;99876.19;5043341;28;1389;-74
2023/03/31 03:06:38;;;;;;;;;;;;;;;9.36;100.00;99868.41;5038871;28;2272;-75
2023/03/31 03:09:09;;;;;;;;;;;;;;;9.35;100.00;99868.53;5043827;28;1706;-74
2023/03/31 03:11:37;;;;;;;;;;;;;;;9.34;100.00;99862.53;5035878;28;1918;-74
2023/03/31 03:14:13;;;;;;;;;;;;;;;9.36;100.00;99854.66;5038542;28;4934;-74
2023/03/31 03:16:41;;;;;;;;;;;;;;;9.33;100.00;99858.34;5039451;28;1171;-74
2023/03/31 03:19:07;;;;;;;;;;;;;;;9.33;100.00;99855.75;5027101;28;1180;-74
2023/03/31 03:21:32;;;;;;;;;;;;;;;9.32;100.00;99848.94;5019748;28;1425;-74
2023/03/31 03:23:58;;;;;;;;;;;;;;;9.30;100.00;99845.69;5037135;28;1074;-74
2023/03/31 03:26:26;;;;;;;;;;;;;;;9.30;100.00;99843.09;5038858;28;1537;-74
2023/03/31 03:28:52;;;;;;;;;;;;;;;9.30;100.00;99835.34;5028358;28;1197;-74
2023/03/31 03:31:18;;;;;;;;;;;;;;;9.30;100.00;99814.63;5039289;28;1969;-75
2023/03/31 03:33:43;;;;;;;;;;;;;;;9.29;100.00;99818.19;5044394;28;1082;-74
2023/03/31 03:36:09;;;;;;;;;;;;;;;9.28;100.00;99795.84;5040536;28;1099;-75
2023/03/31 03:38:35;;;;;;;;;;;;;;;9.30;100.00;99801.69;5037781;28;1279;-75
2023/03/31 03:41:00;;;;;;;;;;;;;;;9.30;100.00;99794.75;5022934;28;1454;-75
2023/03/31 03:43:25;;;;;;;;;;;;;;;9.31;100.00;99790.38;5042261;28;1405;-75
2023/03/31 03:45:51;;;;;;;;;;;;;;;9.31;100.00;99785.22;5044523;28;1227;-76
2023/03/31 03:48:16;;;;;;;;;;;;;;;9.31;100.00;99777.44;5035292;28;1339;-75
2023/03/31 03:50:42;;;;;;;;;;;;;;;9.31;100.00;99769.69;5043683;28;1982;-75
2023/03/31 03:53:07;;;;;;;;;;;;;;;9.30;100.00;99783.59;5040532;28;1330;-76
2023/03/31 03:55:32;;;;;;;;;;;;;;;9.27;100.00;99789.84;5020801;28;1284;-75
2023/03/31 03:57:58;;;;;;;;;;;;;;;9.26;100.00;99777.06;5042075;28;1687;-75
2023/03/31 04:00:23;;;;;;;;;;;;;;;9.27;100.00;99768.34;5033251;28;1498;-75
2023/03/31 04:02:48;;;;;;;;;;;;;;;9.25;100.00;99744.38;5024319;28;2459;-75
2023/03/31 04:05:14;;;;;;;;;;;;;;;9.25;100.00;99740.03;5042261;28;1249;-75
2023/03/31 04:07:39;;;;;;;;;;;;;;;9.26;100.00;99722.72;5044069;28;1214;-75
2023/03/31 04:10:05;;;;;;;;;;;;;;;9.27;100.00;99716.59;5043793;28;1415;-74
2023/03/31 04:12:32;;;;;;;;;;;;;;;9.26;100.00;99712.38;5025980;28;1957;-74
2023/03/31 04:14:57;;;;;;;;;;;;;;;9.25;100.00;99692.66;5042754;28;4799;-74
2023/03/31 04:17:31;;;;;;;;;;;;;;;9.26;100.00;99686.50;5043227;28;1621;-75
2023/03/31 04:20:00;;;;;;;;;;;;;;;9.25;100.00;99682.28;5037843;28;1684;-75
2023/03/31 04:22:27;;;;;;;;;;;;;;;9.25;100.00;99679.72;5041020;28;1313;-75
2023/03/31 04:24:57;;;;;;;;;;;;;;;9.23;100.00;99666.09;5028871;28;1523;-74
2023/03/31 04:27:26;;;;;;;;;;;;;;;9.23;100.00;99656.56;5043097;28;1285;-76
2023/03/31 04:29:53;;;;;;;;;;;;;;;9.21;100.00;99649.91;5022379;28;1971;-75
2023/03/31 04:32:20;;;;;;;;;;;;;;;9.19;100.00;99646.66;5041703;28;1886;-75
2023/03/31 04:34:46;;;;;;;;;;;;;;;9.16;100.00;99627.03;5035030;28;1557;-75
2023/03/31 04:37:11;;;;;;;;;;;;;;;9.17;100.00;99633.03;5042082;28;1630;-77
2023/03/31 04:39:36;;;;;;;;;;;;;;;9.16;100.00;99621.06;5041238;28;1510;-74
2023/03/31 04:42:01;;;;;;;;;;;;;;;9.15;100.00;99614.28;5037570;28;1402;-74
2023/03/31 04:44:27;;;;;;;;;;;;;;;9.13;100.00;99616.19;5034404;28;1300;-76
2023/03/31 04:46:52;;;;;;;;;;;;;;;9.11;100.00;99608.56;5041406;28;1336;-76
2023/03/31 04:49:18;;;;;;;;;;;;;;;9.11;100.00;99605.97;5037904;28;1485;-74
2023/03/31 04:51:43;;;;;;;;;;;;;;;9.11;100.00;99600.00;5043929;28;1890;-74
2023/03/31 04:54:09;;;;;;;;;;;;;;;9.09;100.00;99594.16;5039386;28;1308;-72
2023/03/31 04:56:34;;;;;;;;;;;;;;;9.08;100.00;99597.72;5042416;28;1634;-73
2023/03/31 04:58:59;;;;;;;;;;;;;;;9.07;100.00;99583.16;5027136;28;2494;-74
2023/03/31 05:01:25;;;;;;;;;;;;;;;9.04;100.00;99585.06;5024048;28;1302;-73
2023/03/31 05:03:50;;;;;;;;;;;;;;;9.04;100.00;99569.53;5027174;28;1833;-73
2023/03/31 05:06:16;;;;;;;;;;;;;;;9.04;100.00;99566.94;5033265;28;1465;-74
2023/03/31 05:08:41;;;;;;;;;;;;;;;9.03;100.00;99560.16;5039563;28;1297;-74
2023/03/31 05:11:06;;;;;;;;;;;;;;;9.02;100.00;99548.19;5041207;28;1959;-75
2023/03/31 05:13:31;;;;;;;;;;;;;;;9.02;100.00;99553.38;5038846;28;4773;-74
2023/03/31 05:15:57;;;;;;;;;;;;;;;9.01;100.00;99546.56;5035406;28;1536;-75
2023/03/31 05:18:22;;;;;;;;;;;;;;;9.01;100.00;99549.16;5037574;28;1161;-75
2023/03/31 05:20:47;;;;;;;;;;;;;;;9.01;100.00;99545.75;5040365;28;1271;-75
2023/03/31 05:23:13;;;;;;;;;;;;;;;9.00;100.00;99539.78;5017459;28;1470;-74
2023/03/31 05:25:38;;;;;;;;;;;;;;;9.00;100.00;99537.19;5039924;28;1543;-75
2023/03/31 05:28:04;;;;;;;;;;;;;;;9.00;100.00;99532.03;5040564;28;1615;-75
2023/03/31 05:30:30;;;;;;;;;;;;;;;9.00;100.00;99513.06;5034593;28;2000;-75
2023/03/31 05:32:55;;;;;;;;;;;;;;;9.00;100.00;99519.09;5035859;28;1350;-75
2023/03/31 05:35:21;;;;;;;;;;;;;;;8.99;100.00;99512.25;5039292;28;1367;-75
2023/03/31 05:37:46;;;;;;;;;;;;;;;8.98;100.00;99507.25;5016736;28;1208;-74
2023/03/31 05:40:11;;;;;;;;;;;;;;;8.97;100.00;99508.22;5021846;28;1848;-75
2023/03/31 05:42:37;;;;;;;;;;;;;;;8.96;100.00;99501.41;5024383;28;1396;-74
2023/03/31 05:45:02;;;;;;;;;;;;;;;8.95;100.00;99500.59;5021809;28;1487;-74
2023/03/31 05:47:27;;;;;;;;;;;;;;;8.93;100.00;99497.34;5035850;28;1439;-75
2023/03/31 05:49:53;;;;;;;;;;;;;;;8.93;100.00;99518.03;5036711;28;1212;-75
2023/03/31 05:52:18;;;;;;;;;;;;;;;8.93;100.00;99514.63;5036966;28;1905;-75
2023/03/31 05:54:43;;;;;;;;;;;;;;;8.89;100.00;99496.03;5037857;28;2501;-74
2023/03/31 05:57:09;;;;;;;;;;;;;;;8.93;100.00;99502.50;5045222;28;1475;-75
2023/03/31 05:59:35;;;;;;;;;;;;;;;8.94;100.00;99498.16;5040816;28;1223;-74
2023/03/31 06:02:00;;;;;;;;;;;;;;;8.95;100.00;99490.28;5039646;28;1498;-75
2023/03/31 06:04:26;;;;;;;;;;;;;;;8.96;100.00;99491.88;5035811;28;1340;-75
2023/03/31 06:06:52;;;;;;;;;;;;;;;8.97;100.00;99493.50;5038715;28;1575;-75
2023/03/31 06:09:18;;;;;;;;;;;;;;;8.98;100.00;99487.38;5043743;28;1283;-74
2023/03/31 06:11:43;;;;;;;;;;;;;;;8.99;100.00;99491.56;5042730;28;1902;-74
2023/03/31 06:14:08;;;;;;;;;;;;;;;9.01;100.00;99489.69;5025724;28;4930;-74
2023/03/31 06:16:33;;;;;;;;;;;;;;;9.02;100.00;99475.78;5039459;28;1653;-75
2023/03/31 06:18:59;;;;;;;;;;;;;;;9.02;100.00;99480.94;5038699;28;1387;-75
2023/03/31 06:21:24;;;;;;;;;;;;;;;9.05;100.00;99479.81;5042285;28;1347;-75
2023/03/31 06:23:53;;;;;;;;;;;;;;;9.07;100.00;99479.69;5043601;28;1203;-74
2023/03/31 06:26:19;;;;;;;;;;;;;;;9.05;100.00;99478.06;5035273;28;992;-75
2023/03/31 06:28:45;;;;;;;;;;;;;;;9.08;100.00;99478.72;5043891;28;1112;-75
2023/03/31 06:31:11;;;;;;;;;;;;;;;9.10;100.00;99480.19;5041201;28;1969;-76
2023/03/31 06:33:37;;;;;;;;;;;;;;;9.08;100.00;99478.72;5037704;28;1164;-75
2023/03/31 06:36:04;;;;;;;;;;;;;;;9.08;100.00;99478.72;5034603;28;1283;-75
2023/03/31 06:38:29;;;;;;;;;;;;;;;9.10;100.00;99458.69;5027454;28;2007;-75
2023/03/31 06:40:54;;;;;;;;;;;;;;;9.08;100.00;99460.63;5041654;28;1201;-75
2023/03/31 06:43:20;;;;;;;;;;;;;;;9.07;100.00;99464.19;5046598;28;1545;-75
2023/03/31 06:45:45;;;;;;;;;;;;;;;9.04;100.00;99458.31;5045204;28;1490;-75
2023/03/31 06:48:10;;;;;;;;;;;;;;;9.03;100.00;99446.38;5042102;28;1250;-75
2023/03/31 06:51:02;;;;;;;;;;;;;;;9.02;100.00;99439.56;5044450;28;1898;-81
2023/03/31 06:53:28;;;;;;;;;;;;;;;9.01;100.00;99443.13;5027846;28;1262;-80
2023/03/31 06:55:53;;;;;;;;;;;;;;;9.02;100.00;99439.56;5010230;28;1814;-75
2023/03/31 06:58:18;;;;;;;;;;;;;;;9.01;100.00;99437.94;5042308;28;2388;-75
2023/03/31 07:00:45;;;;;;;;;;;;;;;9.02;100.00;99428.41;5035987;28;2181;-75
2023/03/31 07:03:11;;;;;;;;;;;;;;;9.00;100.00;99426.00;5036050;28;2083;-75
2023/03/31 07:05:36;;;;;;;;;;;;;;;9.00;100.00;99431.16;5039040;28;1959;-75
2023/03/31 07:08:01;;;;;;;;;;;;;;;9.00;100.00;99431.16;5037929;28;1261;-75
2023/03/31 07:10:27;;;;;;;;;;;;;;;8.99;100.00;99423.53;5034458;28;1910;-75
2023/03/31 07:12:53;;;;;;;;;;;;;;;8.99;100.00;99419.16;5037470;28;1154;-75
2023/03/31 07:15:18;;;;;;;;;;;;;;;8.99;100.00;99414.00;5032702;28;4944;-75
2023/03/31 07:17:43;;;;;;;;;;;;;;;9.01;100.00;99417.25;5038249;28;1328;-75
2023/03/31 07:20:13;;;;;;;;;;;;;;;9.00;100.00;99405.31;5036464;28;1683;-75
2023/03/31 07:22:40;;;;;;;;;;;;;;;9.01;100.00;99401.75;5044335;28;1121;-75
2023/03/31 07:25:06;;;;;;;;;;;;;;;9.00;100.00;99394.97;5038739;28;1485;-75
2023/03/31 07:27:31;;;;;;;;;;;;;;;8.99;100.00;99395.91;5034198;28;1579;-75
2023/03/31 07:29:56;;;;;;;;;;;;;;;8.99;100.00;99388.13;5037339;28;1628;-74
2023/03/31 07:32:22;;;;;;;;;;;;;;;8.99;100.00;99382.97;5032014;28;1893;-75
2023/03/31 07:34:47;;;;;;;;;;;;;;;9.00;100.00;99388.94;5028696;28;1417;-75
2023/03/31 07:37:12;;;;;;;;;;;;;;;9.00;100.00;99383.78;5030202;28;1873;-75
2023/03/31 07:39:38;;;;;;;;;;;;;;;9.03;100.00;99389.47;5040279;28;1246;-75
2023/03/31 07:42:03;;;;;;;;;;;;;;;9.09;100.00;99392.41;5035431;28;1666;-75
2023/03/31 07:44:28;;;;;;;;;;;;;;;9.11;100.00;99385.31;5035952;28;1395;-75
2023/03/31 07:46:53;;;;;;;;;;;;;;;9.14;100.00;99379.84;5039251;28;1745;-75
2023/03/31 07:49:18;;;;;;;;;;;;;;;9.20;100.00;99376.66;5039735;28;2368;-75
2023/03/31 07:51:44;;;;;;;;;;;;;;;9.23;100.00;99381.50;5031398;28;1943;-75
2023/03/31 07:54:09;;;;;;;;;;;;;;;9.28;100.00;99374.09;5024381;28;1431;-75
2023/03/31 07:56:35;;;;;;;;;;;;;;;9.33;100.00;99379.63;5027351;28;1299;-75
2023/03/31 07:59:00;;;;;;;;;;;;;;;9.37;100.00;99375.78;5041709;28;1490;-75
2023/03/31 08:01:27;;;;;;;;;;;;;;;9.41;100.00;99377.13;5038520;28;1501;-76
2023/03/31 08:03:54;;;;;;;;;;;;;;;9.49;100.00;99366.78;5038873;28;1357;-74
2023/03/31 08:06:21;;;;;;;;;;;;;;;9.49;100.00;99369.38;5042453;28;1132;-75
2023/03/31 08:08:46;;;;;;;;;;;;;;;9.55;100.00;99373.13;5034601;28;1248;-74
2023/03/31 08:11:12;;;;;;;;;;;;;;;9.62;100.00;99375.91;5042270;28;1961;-75
2023/03/31 08:13:37;;;;;;;;;;;;;;;9.66;100.00;99374.66;5024843;28;4954;-75
2023/03/31 08:16:02;;;;;;;;;;;;;;;9.73;100.00;99370.47;5040711;28;1489;-75
2023/03/31 08:18:28;;;;;;;;;;;;;;;9.81;100.00;99368.75;5037813;28;1459;-75
2023/03/31 08:20:53;;;;;;;;;;;;;;;9.89;100.00;99360.19;5028431;28;1311;-75
2023/03/31 08:23:18;;;;;;;;;;;;;;;9.97;100.00;99367.97;5040844;28;1234;-75
2023/03/31 08:25:44;;;;;;;;;;;;;;;10.08;100.00;99366.88;5031980;28;1306;-75
2023/03/31 08:28:16;;;;;;;;;;;;;;;10.15;100.00;99359.28;5025040;28;1285;-75
2023/03/31 08:30:41;;;;;;;;;;;;;;;10.09;100.00;99358.97;5037279;28;2599;-75
2023/03/31 08:33:06;;;;;;;;;;;;;;;10.11;100.00;99354.41;5037373;28;2268;-75
2023/03/31 08:35:32;;;;;;;;;;;;;;;10.17;100.00;99357.34;5036639;28;1099;-74
2023/03/31 08:37:57;;;;;;;;;;;;;;;10.18;100.00;99359.78;5040643;28;1005;-75
2023/03/31 08:40:24;;;;;;;;;;;;;;;10.16;100.00;99355.72;5039435;28;1428;-74
2023/03/31 08:42:52;;;;;;;;;;;;;;;10.15;100.00;99354.94;5042614;28;1317;-75
2023/03/31 08:45:26;;;;;;;;;;;;;;;10.15;100.00;99359.28;5042647;28;2105;-75
2023/03/31 08:47:54;;;;;;;;;;;;;;;10.16;100.00;99358.31;5044740;28;1285;-75
2023/03/31 08:50:22;;;;;;;;;;;;;;;10.18;100.00;99356.38;5036069;28;1088;-75
2023/03/31 08:53:10;;;;;;;;;;;;;;;10.18;100.00;99348.59;5036197;28;1955;-75
2023/03/31 08:55:49;;;;;;;;;;;;;;;10.19;100.00;99339.84;5040418;28;1037;-74
2023/03/31 08:58:31;;;;;;;;;;;;;;;10.20;100.00;99341.47;5034413;28;1112;-76
2023/03/31 09:00:56;;;;;;;;;;;;;;;10.30;100.00;99347.38;5030654;28;1794;-75
2023/03/31 09:03:21;;;;;;;;;;;;;;;10.26;100.00;99351.22;5015066;28;1267;-75
2023/03/31 09:05:52;;;;;;;;;;;;;;;10.28;100.00;99346.72;5037664;28;1138;-75
2023/03/31 09:08:17;;;;;;;;;;;;;;;10.31;100.00;99341.19;5037111;28;1120;-74
2023/03/31 09:10:50;;;;;;;;;;;;;;;10.35;100.00;99345.09;5038910;28;1898;-75
2023/03/31 09:13:28;;;;;;;;;;;;;;;10.38;100.00;99339.63;5034961;28;4895;-75
2023/03/31 09:16:13;;;;;;;;;;;;;;;10.42;100.00;99335.72;5032986;28;1108;-75
2023/03/31 09:18:39;;;;;;;;;;;;;;;10.48;100.00;99335.06;5035737;28;1393;-75
2023/03/31 09:21:23;;;;;;;;;;;;;;;10.51;100.00;99339.94;5043518;28;1328;-75
2023/03/31 09:23:52;;;;;;;;;;;;;;;10.60;100.00;99323.41;5043260;28;1354;-75
2023/03/31 09:26:38;;;;;;;;;;;;;;;10.67;100.00;99327.94;5036121;28;1207;-75
2023/03/31 09:29:06;;;;;;;;;;;;;;;10.71;100.00;99324.06;5038294;28;1788;-75
2023/03/31 09:31:31;;;;;;;;;;;;;;;10.78;100.00;99325.03;5042572;28;1976;-75
2023/03/31 09:34:00;;;;;;;;;;;;;;;10.84;100.00;99314.81;5045591;28;1096;-75
2023/03/31 09:36:25;;;;;;;;;;;;;;;10.90;100.00;99314.16;5028641;28;1319;-75
2023/03/31 09:38:50;;;;;;;;;;;;;;;10.97;100.00;99310.91;5021540;28;1238;-76
2023/03/31 09:41:17;;;;;;;;;;;;;;;11.00;100.00;99308.78;5029793;28;2583;-75
2023/03/31 09:43:44;;;;;;;;;;;;;;;10.96;100.00;99307.50;5041291;28;1713;-75
2023/03/31 09:46:30;;;;;;;;;;;;;;;10.98;100.00;99305.56;5034250;28;1459;-75
2023/03/31 09:49:15;;;;;;;;;;;;;;;11.12;100.00;99302.28;5038302;28;2854;-75
2023/03/31 09:51:43;;;;;;;;;;;;;;;11.09;100.00;99302.63;5038225;28;2001;-76
2023/03/31 09:54:21;;;;;;;;;;;;;;;11.06;100.00;99302.94;5034983;28;2174;-76
2023/03/31 09:56:47;;;;;;;;;;;;;;;11.08;99.92;99301.00;5037687;28;2038;-76
2023/03/31 09:59:42;;;;;;;;;;;;;;;11.25;97.10;99308.75;5030868;28;2235;-75
2023/03/31 10:02:31;;;;;;;;;;;;;;;11.11;97.58;99305.84;5019036;28;1356;-75
2023/03/31 10:04:56;;;;;;;;;;;;;;;11.30;94.30;99298.69;5039862;28;1459;-75
2023/03/31 10:07:22;;;;;;;;;;;;;;;11.11;95.88;99305.84;5034823;28;1442;-76
2023/03/31 10:09:47;;;;;;;;;;;;;;;11.23;96.44;99313.28;5046849;28;1184;-76
2023/03/31 10:12:19;;;;;;;;;;;;;;;11.24;93.54;99299.31;5041954;28;1962;-75
2023/03/31 10:14:45;;;;;;;;;;;;;;;11.11;94.17;99305.84;5028252;28;4909;-75
2023/03/31 10:17:18;;;;;;;;;;;;;;;11.14;94.99;99289.16;5037513;28;1393;-76
2023/03/31 10:19:51;;;;;;;;;;;;;;;11.21;92.96;99299.66;5037596;28;1242;-76
2023/03/31 10:22:26;;;;;;;;;;;;;;;11.31;93.01;99293.31;5042537;28;1420;-75
2023/03/31 10:24:52;;;;;;;;;;;;;;;11.37;92.72;99297.03;5038335;28;1372;-75
2023/03/31 10:27:25;;;;;;;;;;;;;;;11.37;93.01;99273.66;5036755;28;1223;-75
2023/03/31 10:29:52;;;;;;;;;;;;;;;11.43;92.34;99283.38;5040369;28;1374;-75
2023/03/31 10:32:27;;;;;;;;;;;;;;;11.50;92.13;99278.31;5040415;28;1901;-75
2023/03/31 10:34:54;;;;;;;;;;;;;;;11.48;92.52;99281.09;5027724;28;1342;-75
2023/03/31 10:37:22;;;;;;;;;;;;;;;11.63;92.59;99268.19;5430745;22;2063;-72
2023/03/31 10:39:55;;;;;;;;;;;;;;;11.55;92.24;99261.25;5020623;28;1462;-73
2023/03/31 10:42:21;;;;;;;;;;;;;;;11.70;91.25;99264.75;5043166;28;1685;-73
2023/03/31 10:44:46;;;;;;;;;;;;;;;11.75;90.35;99266.00;5029181;28;1204;-75
2023/03/31 10:47:11;;;;;;;;;;;;;;;11.62;89.65;99269.97;5044370;28;1450;-73
2023/03/31 10:49:38;;;;;;;;;;;;;;;11.63;90.96;99258.59;5042562;28;1405;-73
2023/03/31 10:52:13;;;;;;;;;;;;;;;11.65;90.78;99267.06;5028762;28;2334;-73
2023/03/31 10:54:44;;;;;;;;;;;;;;;11.66;91.89;99266.06;5037350;28;2083;-73
2023/03/31 10:57:10;;;;;;;;;;;;;;;11.73;90.51;99262.78;5024294;28;1985;-73
2023/03/31 10:59:57;;;;;;;;;;;;;;;11.73;90.11;99268.78;5023071;28;2647;-73
2023/03/31 11:02:26;;;;;;;;;;;;;;;11.68;89.94;99251.13;5035685;28;2014;-73
2023/03/31 11:04:51;;;;;;;;;;;;;;;11.64;90.04;99262.84;5036485;28;1931;-73
2023/03/31 11:07:34;;;;;;;;;;;;;;;11.60;89.02;99264.16;5036746;28;2146;-72
2023/03/31 11:10:08;;;;;;;;;;;;;;;11.66;89.06;99262.66;5017220;28;1257;-73
2023/03/31 11:12:37;;;;;;;;;;;;;;;11.56;89.59;99249.88;5039232;28;1894;-73
2023/03/31 11:15:12;;;;;;;;;;;;;;;11.56;89.57;99256.88;5034262;28;4783;-75
2023/03/31 11:17:37;;;;;;;;;;;;;;;11.54;90.30;99244.06;5035675;28;1328;-75
2023/03/31 11:20:15;;;;;;;;;;;;;;;11.58;90.49;99229.75;5019679;28;1271;-74
2023/03/31 11:22:51;;;;;;;;;;;;;;;11.64;89.26;99234.28;5040094;28;1272;-74
2023/03/31 11:25:22;;;;;;;;;;;;;;;11.67;88.66;99238.31;5041385;28;1671;-75
2023/03/31 11:28:01;;;;;;;;;;;;;;;11.67;89.46;99233.91;5038400;28;1172;-76
2023/03/31 11:30:34;;;;;;;;;;;;;;;11.72;89.25;99230.00;5042810;28;1485;-75
2023/03/31 11:32:59;;;;;;;;;;;;;;;11.78;87.57;99222.34;5041477;28;2026;-75
2023/03/31 11:35:31;;;;;;;;;;;;;;;11.76;88.40;99211.31;5038518;28;1260;-75
2023/03/31 11:38:16;;;;;;;;;;;;;;;11.76;89.47;99221.72;5036151;28;1485;-75
2023/03/31 11:41:13;;;;;;;;;;;;;;;11.82;88.28;99215.03;5038950;28;1152;-76
2023/03/31 11:43:41;;;;;;;;;;;;;;;11.75;86.90;99225.25;4997875;28;1378;-75
2023/03/31 11:46:07;;;;;;;;;;;;;;;11.74;86.64;99220.25;5044965;28;1457;-75
2023/03/31 11:48:35;;;;;;;;;;;;;;;11.72;87.75;99219.63;5037226;28;1438;-75
2023/03/31 11:51:02;;;;;;;;;;;;;;;11.75;86.99;99214.88;5032495;28;1963;-75
2023/03/31 11:53:33;;;;;;;;;;;;;;;11.72;85.75;99204.03;5035188;28;1461;-76
2023/03/31 11:56:01;;;;;;;;;;;;;;;11.71;87.10;99211.03;5030947;28;1153;-77
2023/03/31 11:58:34;;;;;;;;;;;;;;;11.81;86.30;99205.56;5030613;28;1163;-75
2023/03/31 12:01:04;;;;;;;;;;;;;;;11.88;84.43;99199.56;5038028;28;1199;-75
2023/03/31 12:03:42;;;;;;;;;;;;;;;11.79;84.10;99195.38;5038269;28;1501;-75
2023/03/31 12:06:16;;;;;;;;;;;;;;;11.79;85.43;99197.16;5040886;28;1211;-75
2023/03/31 12:08:45;;;;;;;;;;;;;;;11.84;84.47;99192.28;5042437;28;1509;-76
2023/03/31 12:11:22;;;;;;;;;;;;;;;11.83;83.26;99180.28;5042064;28;1893;-73
2023/03/31 12:14:06;;;;;;;;;;;;;;;11.81;83.17;99182.19;5038147;28;4632;-74
2023/03/31 12:16:37;;;;;;;;;;;;;;;11.75;83.95;99182.91;5040360;28;1461;-74
2023/03/31 12:19:21;;;;;;;;;;;;;;;11.77;83.41;99175.75;5037972;28;1172;-73
2023/03/31 12:21:52;;;;;;;;;;;;;;;11.75;82.73;99188.91;5034456;28;1213;-74
2023/03/31 12:24:19;;;;;;;;;;;;;;;11.72;83.08;99178.06;5033806;28;1506;-73
2023/03/31 12:27:04;;;;;;;;;;;;;;;11.81;82.09;99172.66;5034689;28;1144;-75
2023/03/31 12:29:29;;;;;;;;;;;;;;;11.81;81.59;99180.44;5043324;28;2189;-75
2023/03/31 12:31:55;;;;;;;;;;;;;;;11.84;81.34;99166.31;5031233;28;1985;-74
2023/03/31 12:34:23;;;;;;;;;;;;;;;11.79;81.05;99178.97;5041370;28;1204;-73
2023/03/31 12:37:17;;;;;;;;;;;;;;;11.69;80.93;99174.81;5024229;28;1662;-74
2023/03/31 12:39:55;;;;;;;;;;;;;;;11.61;81.75;99177.47;5037165;28;1576;-74
2023/03/31 12:42:39;;;;;;;;;;;;;;;11.77;80.68;99173.97;5035476;28;1431;-73
2023/03/31 12:45:08;;;;;;;;;;;;;;;11.75;82.50;99182.91;5039364;28;1374;-74
2023/03/31 12:47:33;;;;;;;;;;;;;;;11.79;83.12;99171.19;5017959;28;1641;-74
2023/03/31 12:50:10;;;;;;;;;;;;;;;11.77;83.37;99178.34;5025044;28;2085;-74
2023/03/31 12:52:38;;;;;;;;;;;;;;;11.75;83.29;99167.31;5039472;28;1914;-74
2023/03/31 12:55:30;;;;;;;;;;;;;;;11.70;84.78;99155.69;5024533;28;1537;-74
2023/03/31 12:58:14;;;;;;;;;;;;;;;11.79;85.62;99147.81;5035329;28;1242;-74
2023/03/31 13:01:00;;;;;;;;;;;;;;;11.88;84.55;99152.00;5036189;28;1446;-73
2023/03/31 13:03:34;;;;;;;;;;;;;;;11.88;85.08;99147.63;5020131;28;1400;-73
2023/03/31 13:06:00;;;;;;;;;;;;;;;11.89;85.51;99141.44;5041488;28;1248;-73